Atwood, Indiana
Current Conditions -  °F | °C
As of 12:15 AM on Thursday 27 Nov 2014 (Local Time) from KASW Reporting Station
Overcast Overcast  
Wind Chill: 23°   Ceiling: 2800
Heat Index: 28°   Visibility: 10mi
Dew Point: 21°   Wind: 5mph
Humidity: 74%   Direction: 340°NNW
Pressure: 30.13"   Gusts: NA
Location:  41.26°N, 85.98°W
Report Text: KASW 270515Z AUTO 34004KT 10SM OVC028 M02/M06 A3013 RMK AO2
Loading
Personal Weather Stations






























Interactive Weather Map New forecast layout! Learn more

10-Day Weather Forecast

Advertisements
Track Severe Weather on mobile